Time;durP1;ratioP1;P1;durP2;ratioP2;P2;SDS_P1;SDS_P2;PMS_P1;PMS_P2;Temp;Humidity;BMP_temperature;BMP_pressure;BME280_temperature;BME280_humidity;BME280_pressure;Samples;Min_cycle;Max_cycle;Signal;HPM_P1;HPM_P2
2022/06/28 00:00:13;;;;;;;29.67;27.57;;;;;;;;;;5072146;28;20916;-74
2022/06/28 00:02:40;;;;;;;29.80;27.80;;;;;;;;;;5072799;28;20442;-73
2022/06/28 00:05:08;;;;;;;31.27;29.37;;;;;;;;;;5072445;28;20934;-74
2022/06/28 00:07:37;;;;;;;28.73;26.73;;;;;;;;;;5072404;28;20427;-73
2022/06/28 00:10:05;;;;;;;29.43;27.43;;;;;;;;;;5072392;28;20791;-73
2022/06/28 00:12:33;;;;;;;31.50;29.17;;;;;;;;;;5072339;28;20754;-73
2022/06/28 00:17:45;;;;;;;30.97;28.70;;;;;;;;;;5072263;28;20512;-74
2022/06/28 00:20:13;;;;;;;30.03;28.03;;;;;;;;;;5071810;28;20409;-75
2022/06/28 00:22:41;;;;;;;30.00;27.77;;;;;;;;;;5072299;28;20435;-73
2022/06/28 00:25:09;;;;;;;32.03;29.67;;;;;;;;;;5072267;28;20434;-73
2022/06/28 00:27:37;;;;;;;29.90;27.70;;;;;;;;;;5071927;28;20968;-73
2022/06/28 00:30:05;;;;;;;32.30;30.10;;;;;;;;;;5074571;28;20414;-73
2022/06/28 00:32:33;;;;;;;32.60;29.90;;;;;;;;;;5076123;28;20423;-73
2022/06/28 00:35:00;;;;;;;33.67;31.23;;;;;;;;;;5075547;28;20437;-73
2022/06/28 00:37:28;;;;;;;33.03;30.83;;;;;;;;;;5075364;28;20493;-73
2022/06/28 00:39:57;;;;;;;32.07;29.80;;;;;;;;;;5075686;28;20425;-73
2022/06/28 00:42:24;;;;;;;31.83;29.70;;;;;;;;;;5075687;28;20445;-73
2022/06/28 00:44:52;;;;;;;31.20;29.13;;;;;;;;;;5075642;28;20463;-73
2022/06/28 00:47:20;;;;;;;32.60;30.40;;;;;;;;;;5075280;28;20409;-73
2022/06/28 00:49:47;;;;;;;31.50;29.30;;;;;;;;;;5075006;28;21005;-73
2022/06/28 00:52:15;;;;;;;33.23;30.60;;;;;;;;;;5075227;28;20434;-73
2022/06/28 00:54:42;;;;;;;32.73;30.50;;;;;;;;;;5075471;28;20409;-73
2022/06/28 00:57:11;;;;;;;32.20;29.90;;;;;;;;;;5075109;28;20443;-73
2022/06/28 00:59:38;;;;;;;33.67;30.83;;;;;;;;;;5075306;28;20878;-73
2022/06/28 01:02:06;;;;;;;32.20;30.10;;;;;;;;;;5075373;28;20461;-73
2022/06/28 01:04:33;;;;;;;34.00;31.30;;;;;;;;;;5075279;28;20417;-73
2022/06/28 01:07:02;;;;;;;31.30;29.40;;;;;;;;;;5074923;28;20434;-74
2022/06/28 01:09:29;;;;;;;31.40;29.17;;;;;;;;;;5074965;28;20979;-73
2022/06/28 01:11:56;;;;;;;30.73;28.60;;;;;;;;;;5075127;28;20438;-74
2022/06/28 01:14:26;;;;;;;32.73;30.37;;;;;;;;;;5074726;28;20446;-73
2022/06/28 01:16:53;;;;;;;29.80;27.60;;;;;;;;;;5074805;28;20430;-73
2022/06/28 01:19:21;;;;;;;32.10;29.80;;;;;;;;;;5074855;28;20482;-73
2022/06/28 01:21:50;;;;;;;30.73;28.60;;;;;;;;;;5075017;28;20426;-73
2022/06/28 01:24:18;;;;;;;31.53;29.40;;;;;;;;;;5074948;28;20429;-73
2022/06/28 01:26:46;;;;;;;30.90;28.70;;;;;;;;;;5075145;28;20435;-73
2022/06/28 01:29:13;;;;;;;30.87;28.80;;;;;;;;;;5074767;28;20477;-73
2022/06/28 01:31:41;;;;;;;30.40;28.27;;;;;;;;;;5074402;28;20835;-74
2022/06/28 01:34:09;;;;;;;32.10;29.80;;;;;;;;;;5074444;28;20886;-73
2022/06/28 01:36:37;;;;;;;30.77;28.57;;;;;;;;;;5074680;28;20435;-73
2022/06/28 01:39:04;;;;;;;30.73;28.43;;;;;;;;;;5074440;28;20502;-74
2022/06/28 01:41:36;;;;;;;31.93;29.60;;;;;;;;;;5073584;28;20446;-73
2022/06/28 01:44:04;;;;;;;32.50;30.00;;;;;;;;;;5074545;28;20435;-73
2022/06/28 01:46:32;;;;;;;32.20;29.40;;;;;;;;;;5074421;28;20432;-73
2022/06/28 01:48:59;;;;;;;30.93;28.83;;;;;;;;;;5074097;28;20448;-73
2022/06/28 01:51:27;;;;;;;33.23;30.73;;;;;;;;;;5074459;28;20416;-73
2022/06/28 01:53:54;;;;;;;33.53;30.80;;;;;;;;;;5074473;28;20453;-73
2022/06/28 01:56:21;;;;;;;31.80;29.50;;;;;;;;;;5073957;28;20417;-74
2022/06/28 01:58:50;;;;;;;32.60;30.20;;;;;;;;;;5074114;28;20453;-74
2022/06/28 02:01:17;;;;;;;34.07;31.47;;;;;;;;;;5074199;28;20446;-73
2022/06/28 02:03:45;;;;;;;32.33;30.03;;;;;;;;;;5074313;28;20457;-73
2022/06/28 02:06:12;;;;;;;33.20;30.80;;;;;;;;;;5074302;28;20478;-73
2022/06/28 02:08:39;;;;;;;34.37;31.87;;;;;;;;;;5074030;28;20764;-73
2022/06/28 02:11:07;;;;;;;34.30;31.60;;;;;;;;;;5074045;28;20445;-73
2022/06/28 02:13:35;;;;;;;33.07;30.67;;;;;;;;;;5073986;28;20405;-73
2022/06/28 02:16:03;;;;;;;34.90;32.27;;;;;;;;;;5073545;28;20412;-73
2022/06/28 02:18:32;;;;;;;33.23;30.80;;;;;;;;;;5073578;28;20510;-73
2022/06/28 02:20:59;;;;;;;35.90;32.70;;;;;;;;;;5073793;28;20413;-73
2022/06/28 02:23:27;;;;;;;36.70;33.63;;;;;;;;;;5073424;28;20439;-73
2022/06/28 02:25:54;;;;;;;35.93;33.03;;;;;;;;;;5073991;28;20430;-73
2022/06/28 02:28:21;;;;;;;37.33;34.20;;;;;;;;;;5073379;28;20945;-75
2022/06/28 02:30:49;;;;;;;37.07;33.87;;;;;;;;;;5073922;28;20409;-73
2022/06/28 02:33:17;;;;;;;36.77;33.70;;;;;;;;;;5073621;28;20397;-73
2022/06/28 02:41:14;;;;;;;35.07;32.27;;;;;;;;;;5073180;28;20397;-73
2022/06/28 02:43:42;;;;;;;35.50;32.80;;;;;;;;;;5073023;28;20925;-73
2022/06/28 02:46:09;;;;;;;36.90;34.00;;;;;;;;;;5073345;28;20435;-73
2022/06/28 02:48:38;;;;;;;36.53;33.40;;;;;;;;;;5073070;28;20448;-73
2022/06/28 02:51:05;;;;;;;39.43;36.23;;;;;;;;;;5072768;28;20979;-73
2022/06/28 02:53:32;;;;;;;39.30;36.00;;;;;;;;;;5072992;28;20410;-73
2022/06/28 02:56:00;;;;;;;40.40;36.47;;;;;;;;;;5073177;28;20545;-73
2022/06/28 02:58:27;;;;;;;43.07;38.97;;;;;;;;;;5073135;28;20589;-73
2022/06/28 03:00:54;;;;;;;44.77;39.97;;;;;;;;;;5073136;28;20426;-73
2022/06/28 03:03:21;;;;;;;43.27;39.00;;;;;;;;;;5072782;28;20416;-73
2022/06/28 03:05:50;;;;;;;44.00;39.30;;;;;;;;;;5072785;28;20413;-73
2022/06/28 03:08:18;;;;;;;42.80;38.97;;;;;;;;;;5073095;28;20443;-73
2022/06/28 03:10:45;;;;;;;42.53;38.57;;;;;;;;;;5073066;28;20419;-73
2022/06/28 03:13:12;;;;;;;43.13;38.90;;;;;;;;;;5072618;28;20409;-73
2022/06/28 03:15:40;;;;;;;43.33;39.10;;;;;;;;;;5072644;28;20442;-74
2022/06/28 03:18:07;;;;;;;43.30;39.20;;;;;;;;;;5072937;28;20417;-73
2022/06/28 03:20:34;;;;;;;46.17;41.40;;;;;;;;;;5072600;28;20413;-73
2022/06/28 03:23:03;;;;;;;45.47;40.70;;;;;;;;;;5072551;28;20420;-74
2022/06/28 03:25:31;;;;;;;42.90;38.70;;;;;;;;;;5072536;28;20421;-73
2022/06/28 03:27:58;;;;;;;45.07;40.53;;;;;;;;;;5072472;28;20410;-74
2022/06/28 03:30:26;;;;;;;44.00;39.50;;;;;;;;;;5073091;28;20413;-73
2022/06/28 03:32:53;;;;;;;47.07;42.10;;;;;;;;;;5072470;28;20442;-74
2022/06/28 03:35:20;;;;;;;46.17;41.90;;;;;;;;;;5072927;28;20691;-74
2022/06/28 03:37:47;;;;;;;46.73;42.17;;;;;;;;;;5072719;28;20443;-73
2022/06/28 03:40:16;;;;;;;42.87;38.97;;;;;;;;;;5072704;28;20489;-73
2022/06/28 03:42:43;;;;;;;46.83;41.93;;;;;;;;;;5072411;28;20439;-73
2022/06/28 03:45:11;;;;;;;43.40;39.23;;;;;;;;;;5072383;28;20894;-74
2022/06/28 03:47:38;;;;;;;44.83;40.40;;;;;;;;;;5072734;28;20466;-74
2022/06/28 03:50:06;;;;;;;44.70;40.27;;;;;;;;;;5072216;28;20464;-74
2022/06/28 03:52:33;;;;;;;44.50;40.60;;;;;;;;;;5072655;28;20453;-74
2022/06/28 03:55:01;;;;;;;46.10;41.63;;;;;;;;;;5072543;28;20445;-74
2022/06/28 03:57:29;;;;;;;47.30;42.70;;;;;;;;;;5072575;28;20434;-74
2022/06/28 03:59:57;;;;;;;44.20;40.13;;;;;;;;;;5072468;28;20484;-74
2022/06/28 04:02:24;;;;;;;44.30;40.00;;;;;;;;;;5072169;28;20923;-74
2022/06/28 04:04:51;;;;;;;46.00;41.77;;;;;;;;;;5074986;28;20449;-74
2022/06/28 04:07:19;;;;;;;44.37;40.27;;;;;;;;;;5076361;28;20449;-74
2022/06/28 04:09:46;;;;;;;44.80;40.40;;;;;;;;;;5076375;28;20781;-74
2022/06/28 04:12:13;;;;;;;47.50;43.10;;;;;;;;;;5075929;28;20416;-74
2022/06/28 04:14:42;;;;;;;43.20;39.40;;;;;;;;;;5075886;28;20923;-74
2022/06/28 04:17:09;;;;;;;43.00;39.27;;;;;;;;;;5075913;28;20434;-74
2022/06/28 04:19:38;;;;;;;45.60;41.20;;;;;;;;;;5075924;28;20482;-74
2022/06/28 04:22:06;;;;;;;45.03;40.97;;;;;;;;;;5075841;28;20466;-74
2022/06/28 04:24:33;;;;;;;45.80;41.40;;;;;;;;;;5075675;28;20416;-74
2022/06/28 04:27:01;;;;;;;44.67;40.37;;;;;;;;;;5075820;28;21434;-74
2022/06/28 04:29:28;;;;;;;44.70;40.70;;;;;;;;;;5075869;28;20491;-74
2022/06/28 04:31:57;;;;;;;44.97;40.90;;;;;;;;;;5075875;28;20413;-74
2022/06/28 04:34:24;;;;;;;44.07;39.97;;;;;;;;;;5075909;28;20732;-74
2022/06/28 04:36:52;;;;;;;41.40;37.77;;;;;;;;;;5075996;28;20445;-74
2022/06/28 04:39:19;;;;;;;45.87;41.60;;;;;;;;;;5075339;28;20453;-74
2022/06/28 04:41:47;;;;;;;44.30;40.20;;;;;;;;;;5075354;28;20473;-74
2022/06/28 04:44:14;;;;;;;43.27;39.30;;;;;;;;;;5075393;28;20413;-74
2022/06/28 04:46:41;;;;;;;46.27;42.30;;;;;;;;;;5075284;28;20993;-74
2022/06/28 04:49:10;;;;;;;44.63;40.63;;;;;;;;;;5075247;28;20457;-74
2022/06/28 04:51:37;;;;;;;44.80;40.90;;;;;;;;;;5075550;28;20801;-74
2022/06/28 04:54:05;;;;;;;43.77;40.00;;;;;;;;;;5075457;28;20458;-74
2022/06/28 04:56:32;;;;;;;42.73;39.23;;;;;;;;;;5075467;28;20442;-74
2022/06/28 04:58:59;;;;;;;44.57;40.60;;;;;;;;;;5075120;28;20452;-74
2022/06/28 05:01:27;;;;;;;42.10;38.40;;;;;;;;;;5075338;28;20432;-74
2022/06/28 05:03:54;;;;;;;41.87;38.13;;;;;;;;;;5075042;28;20412;-74
2022/06/28 05:06:22;;;;;;;44.87;40.93;;;;;;;;;;5075266;28;20431;-74
2022/06/28 05:08:50;;;;;;;42.57;38.73;;;;;;;;;;5075358;28;20442;-74
2022/06/28 05:11:17;;;;;;;42.60;38.97;;;;;;;;;;5074923;28;20442;-74
2022/06/28 05:13:44;;;;;;;44.63;40.80;;;;;;;;;;5075035;28;20496;-74
2022/06/28 05:16:13;;;;;;;41.90;38.50;;;;;;;;;;5075025;28;20409;-74
2022/06/28 05:18:40;;;;;;;42.50;38.67;;;;;;;;;;5074591;28;20900;-74
2022/06/28 05:21:07;;;;;;;44.50;40.70;;;;;;;;;;5075050;28;20775;-73
2022/06/28 05:23:37;;;;;;;43.17;39.40;;;;;;;;;;5074929;28;20434;-73
2022/06/28 05:26:04;;;;;;;42.17;38.30;;;;;;;;;;5075076;28;20416;-74
2022/06/28 05:28:32;;;;;;;40.93;37.53;;;;;;;;;;5074824;28;20416;-74
2022/06/28 05:30:59;;;;;;;41.80;38.27;;;;;;;;;;5074823;28;20766;-74
2022/06/28 05:33:27;;;;;;;37.70;34.60;;;;;;;;;;5074498;28;20425;-73
2022/06/28 05:35:54;;;;;;;40.07;36.80;;;;;;;;;;5074421;28;20409;-73
2022/06/28 05:38:21;;;;;;;40.93;37.53;;;;;;;;;;5074488;28;20902;-74
2022/06/28 05:40:50;;;;;;;38.97;35.90;;;;;;;;;;5074261;28;20492;-74
2022/06/28 05:43:17;;;;;;;36.90;34.00;;;;;;;;;;5074818;28;20413;-74
2022/06/28 05:45:44;;;;;;;37.93;35.10;;;;;;;;;;5074499;28;20797;-74
2022/06/28 05:48:12;;;;;;;36.73;33.77;;;;;;;;;;5074244;28;20457;-74
2022/06/28 05:50:39;;;;;;;35.17;32.33;;;;;;;;;;5074235;28;20802;-74
2022/06/28 05:53:07;;;;;;;35.03;32.10;;;;;;;;;;5074397;28;20417;-74
2022/06/28 05:55:34;;;;;;;36.53;33.53;;;;;;;;;;5073989;28;20476;-74
2022/06/28 05:58:02;;;;;;;35.63;32.73;;;;;;;;;;5074151;28;20413;-74
2022/06/28 06:00:30;;;;;;;36.70;33.67;;;;;;;;;;5075209;28;20461;-73
2022/06/28 06:02:57;;;;;;;33.80;31.10;;;;;;;;;;5077999;28;20525;-73
2022/06/28 06:05:24;;;;;;;34.20;31.40;;;;;;;;;;5073693;28;20413;-74
2022/06/28 06:07:52;;;;;;;35.03;32.33;;;;;;;;;;5074005;28;20446;-74
2022/06/28 06:10:19;;;;;;;36.57;33.83;;;;;;;;;;5073990;28;20420;-74
2022/06/28 06:12:47;;;;;;;36.27;33.27;;;;;;;;;;5073892;28;20445;-75
2022/06/28 06:15:15;;;;;;;38.03;34.43;;;;;;;;;;5073589;28;20435;-74
2022/06/28 06:17:43;;;;;;;35.53;32.30;;;;;;;;;;5073674;28;20420;-74
2022/06/28 06:20:10;;;;;;;35.63;32.53;;;;;;;;;;5073617;28;20453;-74
2022/06/28 06:22:38;;;;;;;32.73;29.93;;;;;;;;;;5073691;28;20425;-74
2022/06/28 06:25:05;;;;;;;33.50;31.00;;;;;;;;;;5078487;28;20442;-74
2022/06/28 06:27:33;;;;;;;35.27;32.77;;;;;;;;;;5073028;28;20428;-75
2022/06/28 06:30:00;;;;;;;34.50;31.80;;;;;;;;;;5073804;28;20393;-74
2022/06/28 06:32:29;;;;;;;35.43;32.33;;;;;;;;;;5073463;28;20444;-74
2022/06/28 06:34:56;;;;;;;34.63;31.57;;;;;;;;;;5073520;28;20849;-75
2022/06/28 06:37:23;;;;;;;35.93;32.83;;;;;;;;;;5073505;28;20442;-75
2022/06/28 06:39:51;;;;;;;34.63;32.13;;;;;;;;;;5073361;28;20457;-74
2022/06/28 06:42:18;;;;;;;34.77;31.97;;;;;;;;;;5073380;28;20417;-74
2022/06/28 06:44:45;;;;;;;34.80;31.70;;;;;;;;;;5073048;28;20431;-74
2022/06/28 06:47:12;;;;;;;34.27;31.50;;;;;;;;;;5072900;28;20447;-74
2022/06/28 06:49:41;;;;;;;31.70;29.50;;;;;;;;;;5072805;28;20474;-75
2022/06/28 06:52:08;;;;;;;32.67;30.17;;;;;;;;;;5073058;28;20441;-75
2022/06/28 06:54:36;;;;;;;34.13;31.60;;;;;;;;;;5073542;28;20408;-75
2022/06/28 06:57:03;;;;;;;32.27;29.60;;;;;;;;;;5073263;28;20421;-75
2022/06/28 06:59:30;;;;;;;36.13;33.23;;;;;;;;;;5072790;28;20470;-74
2022/06/28 07:01:58;;;;;;;34.00;31.40;;;;;;;;;;5073079;28;20780;-74
2022/06/28 07:04:25;;;;;;;34.43;31.77;;;;;;;;;;5073093;28;20415;-75
2022/06/28 07:06:55;;;;;;;33.93;31.37;;;;;;;;;;5073205;28;20414;-75
2022/06/28 07:09:22;;;;;;;32.43;30.03;;;;;;;;;;5073006;28;20787;-74
2022/06/28 07:11:50;;;;;;;31.93;29.20;;;;;;;;;;5073063;28;20771;-75
2022/06/28 07:14:18;;;;;;;30.60;28.50;;;;;;;;;;5073050;28;20424;-75
2022/06/28 07:16:45;;;;;;;30.80;28.40;;;;;;;;;;5072828;28;20428;-75
2022/06/28 07:19:13;;;;;;;32.57;29.97;;;;;;;;;;5072708;28;20496;-75
2022/06/28 07:21:41;;;;;;;29.80;27.43;;;;;;;;;;5072569;28;20796;-74
2022/06/28 07:24:10;;;;;;;30.90;28.70;;;;;;;;;;5072902;28;20413;-75
2022/06/28 07:26:37;;;;;;;32.27;29.90;;;;;;;;;;5073097;28;20440;-74
2022/06/28 07:29:04;;;;;;;29.93;27.93;;;;;;;;;;5072686;28;20416;-74
2022/06/28 07:31:32;;;;;;;29.97;27.87;;;;;;;;;;5072771;28;20805;-75
2022/06/28 07:34:00;;;;;;;30.33;28.03;;;;;;;;;;5072454;28;20409;-74
2022/06/28 07:36:27;;;;;;;29.33;27.10;;;;;;;;;;5072412;28;20417;-74
2022/06/28 07:38:55;;;;;;;30.80;28.50;;;;;;;;;;5073493;28;20443;-75
2022/06/28 07:41:24;;;;;;;29.50;27.10;;;;;;;;;;5076801;28;20517;-75
2022/06/28 07:43:52;;;;;;;30.20;27.57;;;;;;;;;;5076475;28;20970;-74
2022/06/28 07:46:19;;;;;;;28.17;26.47;;;;;;;;;;5076818;28;20459;-74
2022/06/28 07:48:47;;;;;;;27.03;25.23;;;;;;;;;;5076193;28;20513;-79
2022/06/28 07:54:00;;;;;;;27.87;26.13;;;;;;;;;;5080422;28;20957;-82
2022/06/28 07:56:29;;;;;;;29.23;27.33;;;;;;;;;;5092106;28;20424;-79
2022/06/28 07:58:56;;;;;;;26.43;24.77;;;;;;;;;;5096735;28;20460;-80
2022/06/28 08:01:24;;;;;;;25.43;23.90;;;;;;;;;;5078051;28;20455;-82
2022/06/28 08:03:51;;;;;;;24.30;22.80;;;;;;;;;;5096634;28;20817;-74
2022/06/28 08:06:19;;;;;;;27.30;25.57;;;;;;;;;;5096702;28;20434;-73
2022/06/28 08:08:46;;;;;;;27.77;26.07;;;;;;;;;;5096410;28;20998;-74
2022/06/28 08:11:14;;;;;;;28.30;26.20;;;;;;;;;;5096209;28;20446;-73
2022/06/28 08:13:42;;;;;;;27.03;25.33;;;;;;;;;;5096319;28;20441;-76
2022/06/28 08:16:10;;;;;;;27.23;25.50;;;;;;;;;;5096293;28;20437;-76
2022/06/28 08:18:37;;;;;;;26.90;25.10;;;;;;;;;;5096410;28;20404;-76
2022/06/28 08:21:05;;;;;;;26.67;24.93;;;;;;;;;;5096512;28;20452;-76
2022/06/28 08:23:32;;;;;;;26.40;24.80;;;;;;;;;;5096368;28;20445;-76
2022/06/28 08:26:00;;;;;;;27.17;25.57;;;;;;;;;;5096222;28;20449;-76
2022/06/28 08:28:27;;;;;;;28.60;26.50;;;;;;;;;;5096317;28;20791;-76
2022/06/28 08:30:56;;;;;;;27.33;25.30;;;;;;;;;;5096283;28;20407;-75
2022/06/28 08:33:23;;;;;;;30.17;27.70;;;;;;;;;;5096196;28;20438;-78
2022/06/28 08:35:51;;;;;;;29.10;27.10;;;;;;;;;;5095932;28;20434;-76
2022/06/28 08:38:18;;;;;;;25.87;24.03;;;;;;;;;;5096139;28;20464;-77
2022/06/28 08:40:46;;;;;;;27.10;25.47;;;;;;;;;;5096296;28;20469;-76
2022/06/28 08:43:13;;;;;;;28.10;26.40;;;;;;;;;;5095751;28;20900;-76
2022/06/28 08:45:41;;;;;;;26.97;25.33;;;;;;;;;;5095967;28;20440;-75
2022/06/28 08:48:14;;;;;;;26.80;25.07;;;;;;;;;;5095416;28;20985;-76
2022/06/28 08:50:42;;;;;;;26.83;25.13;;;;;;;;;;5095010;28;20520;-76
2022/06/28 08:53:10;;;;;;;25.73;23.97;;;;;;;;;;5095859;28;20910;-76
2022/06/28 08:55:38;;;;;;;26.10;24.30;;;;;;;;;;5095881;28;20438;-76
2022/06/28 08:58:07;;;;;;;24.87;23.43;;;;;;;;;;5095715;28;20906;-76
2022/06/28 09:00:35;;;;;;;25.27;23.57;;;;;;;;;;5095630;28;20481;-78
2022/06/28 09:03:02;;;;;;;26.00;24.30;;;;;;;;;;5095806;28;20415;-76
2022/06/28 09:05:31;;;;;;;25.23;23.83;;;;;;;;;;5095332;28;20930;-76
2022/06/28 09:07:59;;;;;;;24.30;22.77;;;;;;;;;;5095300;28;20442;-76
2022/06/28 09:10:27;;;;;;;24.73;23.33;;;;;;;;;;5095509;28;20412;-76
2022/06/28 09:13:05;;;;;;;25.20;23.47;;;;;;;;;;5095458;28;20436;-75
2022/06/28 09:15:46;;;;;;;23.43;21.93;;;;;;;;;;5095093;28;20483;-75
2022/06/28 09:18:13;;;;;;;23.33;21.90;;;;;;;;;;5094908;28;20437;-76
2022/06/28 09:20:42;;;;;;;23.37;22.03;;;;;;;;;;5095240;28;20827;-75
2022/06/28 09:23:21;;;;;;;23.93;22.53;;;;;;;;;;5094883;28;20491;-76
2022/06/28 09:25:49;;;;;;;23.70;22.40;;;;;;;;;;5095258;28;20416;-76
2022/06/28 09:28:23;;;;;;;25.30;23.80;;;;;;;;;;5094800;28;20994;-75
2022/06/28 09:30:51;;;;;;;24.20;22.60;;;;;;;;;;5095180;28;20441;-76
2022/06/28 09:33:26;;;;;;;25.03;23.07;;;;;;;;;;5094814;28;20446;-76
2022/06/28 09:35:56;;;;;;;24.20;22.80;;;;;;;;;;5092402;28;20412;-76
2022/06/28 09:38:33;;;;;;;24.40;22.90;;;;;;;;;;5082779;28;20434;-76
2022/06/28 09:41:01;;;;;;;24.07;22.57;;;;;;;;;;5085510;28;20575;-75
2022/06/28 09:43:32;;;;;;;24.50;22.90;;;;;;;;;;5084276;28;20735;-75
2022/06/28 09:46:03;;;;;;;24.60;23.10;;;;;;;;;;5085635;28;20397;-76
2022/06/28 09:48:35;;;;;;;24.73;23.00;;;;;;;;;;5085119;28;20489;-75
2022/06/28 09:51:05;;;;;;;24.80;23.40;;;;;;;;;;5082004;28;20440;-75
2022/06/28 09:53:34;;;;;;;24.40;22.90;;;;;;;;;;5084256;28;20448;-76
2022/06/28 09:56:05;;;;;;;24.00;22.67;;;;;;;;;;5083045;28;20475;-75
2022/06/28 09:58:33;;;;;;;23.90;22.33;;;;;;;;;;5065820;28;20447;-76
2022/06/28 10:01:00;;;;;;;24.23;22.83;;;;;;;;;;5091387;28;20519;-76
2022/06/28 10:03:29;;;;;;;23.50;22.10;;;;;;;;;;5093944;28;20421;-75
2022/06/28 10:05:57;;;;;;;23.73;22.33;;;;;;;;;;5094183;28;20888;-75
2022/06/28 10:08:26;;;;;;;25.00;23.40;;;;;;;;;;5094115;28;20833;-75
2022/06/28 10:10:53;;;;;;;23.47;22.07;;;;;;;;;;5094376;28;20441;-75
2022/06/28 10:16:10;;;;;;;23.83;22.33;;;;;;;;;;5094042;28;20435;-75
2022/06/28 10:18:37;;;;;;;23.60;22.13;;;;;;;;;;5093751;28;20434;-74
2022/06/28 10:21:04;;;;;;;24.40;22.90;;;;;;;;;;5094086;28;20481;-75
2022/06/28 10:23:39;;;;;;;24.20;22.43;;;;;;;;;;5094194;28;20438;-75
2022/06/28 10:26:08;;;;;;;23.93;22.23;;;;;;;;;;5093720;28;20429;-75
2022/06/28 10:28:37;;;;;;;23.40;22.00;;;;;;;;;;5093722;28;20434;-75
2022/06/28 10:31:25;;;;;;;22.20;20.80;;;;;;;;;;5093877;28;20489;-75
2022/06/28 10:33:54;;;;;;;21.13;19.83;;;;;;;;;;5085739;28;20452;-74
2022/06/28 10:36:22;;;;;;;22.10;20.60;;;;;;;;;;5094106;28;20430;-75
2022/06/28 10:39:08;;;;;;;21.63;20.23;;;;;;;;;;5093794;28;20437;-75
2022/06/28 10:41:41;;;;;;;23.60;22.13;;;;;;;;;;5093653;28;20484;-75
2022/06/28 10:44:09;;;;;;;24.03;22.43;;;;;;;;;;5093764;28;20436;-75
2022/06/28 10:46:37;;;;;;;24.67;23.17;;;;;;;;;;5093737;28;20511;-75
2022/06/28 10:49:06;;;;;;;24.20;22.67;;;;;;;;;;5093245;28;20444;-75
2022/06/28 10:51:35;;;;;;;24.40;22.90;;;;;;;;;;5093620;28;20907;-75
2022/06/28 10:54:05;;;;;;;24.20;22.80;;;;;;;;;;5093268;28;20512;-75
2022/06/28 10:56:32;;;;;;;24.50;22.90;;;;;;;;;;5093484;28;20902;-75
2022/06/28 10:59:02;;;;;;;23.27;21.87;;;;;;;;;;5093466;28;20429;-75
2022/06/28 11:01:48;;;;;;;22.97;21.40;;;;;;;;;;5093330;28;20484;-74
2022/06/28 11:04:23;;;;;;;24.27;22.57;;;;;;;;;;5093243;28;20879;-74
2022/06/28 11:06:52;;;;;;;24.50;23.03;;;;;;;;;;5093108;28;20414;-75
2022/06/28 11:09:24;;;;;;;24.03;22.50;;;;;;;;;;5093282;28;20516;-75
2022/06/28 11:12:15;;;;;;;23.40;21.83;;;;;;;;;;5093039;28;20909;-75
2022/06/28 11:14:48;;;;;;;24.50;23.00;;;;;;;;;;5068499;28;20495;-75
2022/06/28 11:17:16;;;;;;;24.37;22.87;;;;;;;;;;5092813;28;20399;-75
2022/06/28 11:19:50;;;;;;;23.70;22.10;;;;;;;;;;5078049;28;20432;-76
2022/06/28 11:22:20;;;;;;;23.60;22.20;;;;;;;;;;5075261;28;20451;-75
2022/06/28 11:24:47;;;;;;;23.77;22.37;;;;;;;;;;5072950;28;20488;-74
2022/06/28 11:27:20;;;;;;;23.23;21.93;;;;;;;;;;5072507;28;20438;-75
2022/06/28 11:29:48;;;;;;;23.30;22.00;;;;;;;;;;5072929;28;20464;-75
2022/06/28 11:32:17;;;;;;;24.07;22.60;;;;;;;;;;5072548;28;20922;-75
2022/06/28 11:34:44;;;;;;;23.43;22.03;;;;;;;;;;5072493;28;20767;-75
2022/06/28 11:37:11;;;;;;;23.30;21.93;;;;;;;;;;5072753;28;20436;-75
2022/06/28 11:39:42;;;;;;;25.03;23.63;;;;;;;;;;5072626;28;20434;-75
2022/06/28 11:42:09;;;;;;;23.33;21.93;;;;;;;;;;5072699;28;20506;-75
2022/06/28 11:44:37;;;;;;;23.00;21.50;;;;;;;;;;5072929;28;20430;-75
2022/06/28 11:47:09;;;;;;;22.90;21.50;;;;;;;;;;5072246;28;20829;-76
2022/06/28 11:49:37;;;;;;;22.87;21.37;;;;;;;;;;5072455;28;20482;-74
2022/06/28 11:52:04;;;;;;;23.40;22.00;;;;;;;;;;5072344;28;20431;-75
2022/06/28 11:54:32;;;;;;;22.70;21.43;;;;;;;;;;5072569;28;20449;-75
2022/06/28 11:56:59;;;;;;;22.70;21.30;;;;;;;;;;5072287;28;20422;-75
2022/06/28 11:59:45;;;;;;;22.70;21.37;;;;;;;;;;5072601;28;20437;-75
2022/06/28 12:02:33;;;;;;;22.83;21.37;;;;;;;;;;5072508;28;20508;-76
2022/06/28 12:05:01;;;;;;;22.40;21.00;;;;;;;;;;5071996;28;20446;-75
2022/06/28 12:07:34;;;;;;;22.60;21.10;;;;;;;;;;5072446;28;20416;-75
2022/06/28 12:10:01;;;;;;;23.30;21.80;;;;;;;;;;5072494;28;20458;-75
2022/06/28 12:12:28;;;;;;;23.80;22.40;;;;;;;;;;5072423;28;20788;-75
2022/06/28 12:14:57;;;;;;;24.00;22.60;;;;;;;;;;5072477;28;20415;-75
2022/06/28 12:17:26;;;;;;;23.90;22.40;;;;;;;;;;5072024;28;20424;-76
2022/06/28 12:19:53;;;;;;;23.20;21.80;;;;;;;;;;5072054;28;20409;-75
2022/06/28 12:22:23;;;;;;;23.53;21.93;;;;;;;;;;5071897;28;20869;-75
2022/06/28 12:24:52;;;;;;;23.53;22.23;;;;;;;;;;5072686;28;20481;-75
2022/06/28 12:27:21;;;;;;;23.27;21.87;;;;;;;;;;5076001;28;20761;-75
2022/06/28 12:29:48;;;;;;;23.03;21.50;;;;;;;;;;5076041;28;20432;-75
2022/06/28 12:32:16;;;;;;;22.33;21.03;;;;;;;;;;5075735;28;20433;-75
2022/06/28 12:34:45;;;;;;;23.67;22.17;;;;;;;;;;5075971;28;20405;-75
2022/06/28 12:37:12;;;;;;;22.80;21.50;;;;;;;;;;5075863;28;20416;-75
2022/06/28 12:39:40;;;;;;;22.40;21.10;;;;;;;;;;5075545;28;20444;-75
2022/06/28 12:42:08;;;;;;;23.37;22.03;;;;;;;;;;5075451;28;20461;-75
2022/06/28 12:44:35;;;;;;;23.47;21.97;;;;;;;;;;5075699;28;20449;-75
2022/06/28 12:47:03;;;;;;;23.30;22.07;;;;;;;;;;5075313;28;20986;-75
2022/06/28 12:49:30;;;;;;;23.40;22.03;;;;;;;;;;5075398;28;20482;-75
2022/06/28 12:51:59;;;;;;;23.13;21.73;;;;;;;;;;5075790;28;20430;-75
2022/06/28 12:54:26;;;;;;;22.67;21.47;;;;;;;;;;5075643;28;20420;-75
2022/06/28 12:56:53;;;;;;;23.17;21.80;;;;;;;;;;5075758;28;20438;-75
2022/06/28 12:59:22;;;;;;;23.00;21.60;;;;;;;;;;5075186;28;20944;-76
2022/06/28 13:01:49;;;;;;;23.97;22.40;;;;;;;;;;5075211;28;21074;-75
2022/06/28 13:04:17;;;;;;;23.03;21.63;;;;;;;;;;5075100;28;20803;-75
2022/06/28 13:06:44;;;;;;;22.87;21.37;;;;;;;;;;5075598;28;20446;-75
2022/06/28 13:09:13;;;;;;;22.67;21.03;;;;;;;;;;5075240;28;20446;-75
2022/06/28 13:11:41;;;;;;;23.67;22.17;;;;;;;;;;5074967;28;20437;-76
2022/06/28 13:14:08;;;;;;;23.80;22.40;;;;;;;;;;5074967;28;20431;-75
2022/06/28 13:16:36;;;;;;;24.27;22.77;;;;;;;;;;5075253;28;20438;-75
2022/06/28 13:19:03;;;;;;;24.57;22.97;;;;;;;;;;5074680;28;20411;-74
2022/06/28 13:21:31;;;;;;;24.30;22.80;;;;;;;;;;5075108;28;20477;-75
2022/06/28 13:23:58;;;;;;;24.77;23.30;;;;;;;;;;5074714;28;20434;-75
2022/06/28 13:26:27;;;;;;;24.57;23.17;;;;;;;;;;5074819;28;20912;-75
2022/06/28 13:28:54;;;;;;;24.53;22.90;;;;;;;;;;5074525;28;20953;-75
2022/06/28 13:31:22;;;;;;;23.30;21.90;;;;;;;;;;5074629;28;20431;-75
2022/06/28 13:33:49;;;;;;;23.53;22.20;;;;;;;;;;5074501;28;20949;-75
2022/06/28 13:36:16;;;;;;;24.57;22.83;;;;;;;;;;5073895;28;20411;-75
2022/06/28 13:38:44;;;;;;;23.83;22.33;;;;;;;;;;5074289;28;20417;-75
2022/06/28 13:41:11;;;;;;;23.40;22.00;;;;;;;;;;5074580;28;20435;-75
2022/06/28 13:43:40;;;;;;;24.77;23.17;;;;;;;;;;5074976;28;20435;-77
2022/06/28 13:46:08;;;;;;;23.20;21.80;;;;;;;;;;5074313;28;20782;-75
2022/06/28 13:48:36;;;;;;;24.87;23.37;;;;;;;;;;5074038;28;20473;-75
2022/06/28 13:51:03;;;;;;;23.50;22.00;;;;;;;;;;5074105;28;20470;-74
2022/06/28 13:53:31;;;;;;;25.50;24.00;;;;;;;;;;5074466;28;20462;-75
2022/06/28 13:55:59;;;;;;;24.10;22.60;;;;;;;;;;5074418;28;20779;-75
2022/06/28 13:58:27;;;;;;;25.83;24.23;;;;;;;;;;5073969;28;20434;-75
2022/06/28 14:00:57;;;;;;;24.90;23.30;;;;;;;;;;5073993;28;20794;-75
2022/06/28 14:03:25;;;;;;;23.93;22.30;;;;;;;;;;5074192;28;20555;-74
2022/06/28 14:05:53;;;;;;;24.07;22.20;;;;;;;;;;5074241;28;20433;-75
2022/06/28 14:08:21;;;;;;;23.30;21.90;;;;;;;;;;5073900;28;20907;-75
2022/06/28 14:10:48;;;;;;;23.33;21.93;;;;;;;;;;5074076;28;20430;-75
2022/06/28 14:13:15;;;;;;;24.20;22.70;;;;;;;;;;5073740;28;20936;-75
2022/06/28 14:15:43;;;;;;;25.20;23.70;;;;;;;;;;5074002;28;20443;-74
2022/06/28 14:18:12;;;;;;;29.87;27.90;;;;;;;;;;5073515;28;20439;-75
2022/06/28 14:20:39;;;;;;;35.90;33.20;;;;;;;;;;5073588;28;20492;-75
2022/06/28 14:23:06;;;;;;;28.07;26.27;;;;;;;;;;5073678;28;20481;-75
2022/06/28 14:25:34;;;;;;;27.27;25.57;;;;;;;;;;5073578;28;20438;-75
2022/06/28 14:28:02;;;;;;;23.20;21.80;;;;;;;;;;5073545;28;20923;-75
2022/06/28 14:30:29;;;;;;;23.17;21.77;;;;;;;;;;5073392;28;20841;-75
2022/06/28 14:32:57;;;;;;;22.93;21.53;;;;;;;;;;5073430;28;20443;-75
2022/06/28 14:35:26;;;;;;;29.00;26.97;;;;;;;;;;5073608;28;20438;-75